NCAR-RAP Real-Time Weather Data

Output produced by METARs form (24 April 2018  16:26 UTC)
found at http://weather.rap.ucar.edu/surface/
 
RJOW 241000Z 35005KT 280V050 2000 -SHRA BR FEW001 SCT003 BKN005 13/13 Q1007
RJOW 240900Z VRB04KT 2000 -SHRA BR FEW001 SCT003 BKN005 14/14 Q1006
RJOW 240833Z 33003KT 260V060 3000 -SHRA BR FEW001 SCT003 BKN006 14/14 Q1006 RMK 1ST001 3ST003 5ST006 A2971
RJOW 240815Z 31007KT 2000 SHRA BR FEW001 SCT003 BKN006 14/14 Q1005 RMK 1ST001 3ST003 5ST006 A2970
RJOW 240800Z 30010KT 3000 -SHRA BR FEW001 SCT003 BKN006 15/15 Q1005
RJOW 240738Z 31008KT 290V350 3000 -SHRA BR FEW001 SCT003 BKN006 15/15 Q1005 RMK 1ST001 3ST003 5ST006 A2968
RJOW 240700Z 29011KT 1500 R11/P2000N -SHRA BR FEW001 BKN003 15/15 Q1004
RJOW 240643Z 29012KT 1000 R11/0800VP2000D -SHRA BR FEW001 BKN003 16/16 Q1003 RMK 1ST001 7ST003 A2964
RJOW 240631Z 28012KT 1500 R11/0600VP2000U SHRA BR FEW001 BKN003 18/18 Q1003 RMK 1ST001 7ST003 A2963
RJOW 240626Z 28010KT 1500 R11/0600VP2000U -SHRA BR FEW001 BKN003 18/18 Q1003 RMK 1ST001 7ST003 A2963
RJOW 240616Z 29007KT 1000 R11/0650V2000D -SHRA BR FEW001 BKN003 18/18 Q1003 RMK 1ST001 7ST003 A2963
RJOW 240612Z 30007KT 1500 R11/1000VP2000D -SHRA BR FEW001 BKN005 18/18 Q1003 RMK 1ST001 7ST005 A2962
RJOW 240600Z 31005KT 3000 -SHRA BR FEW001 SCT004 BKN015 18/18 Q1003
RJOW 240525Z 31007KT 2000 R11/2000N SHRA BR FEW001 BKN004 BKN015 18/18 Q1003 RMK 1ST001 5ST004 6CU015 A2963
RJOW 240509Z 30008KT 3000 R11/2000N -SHRA BR FEW001 BKN005 BKN020 18/18 Q1003 RMK 1ST001 5ST005 6CU020 A2963
RJOW 240500Z 30009KT 9000 -SHRA BR FEW001 SCT005 BKN040 19/18 Q1003
RJOW 240414Z 15008KT 9999 -SHRA FEW001 SCT020 BKN030 20/19 Q1003 RMK 1ST001 3CU020 5CU030 A2964
RJOW 240400Z 15007KT 110V180 7000 R11/2000N SHRA FEW001 SCT020 BKN030 19/19 Q1003
RJOW 240318Z 16006KT 7000 -SHRA FEW001 SCT020 BKN050 19/18 Q1004 RMK 1ST001 3CU020 5SC050 A2966 P/FR
RJOW 240300Z 17003KT 120V240 7000 SHRA FEW001 SCT015 BKN020 19/19 Q1004
RJOW 240200Z 15012KT 7000 -RA FEW005 SCT045 BKN060 19/18 Q1005
RJOW 240100Z 17005KT 140V230 6000 R11/1400VP2000D RA BR FEW005 SCT040 BKN060 19/18 Q1006
RJOW 240032Z 16010KT 6000 R11/2000N RA BR FEW003 SCT040 BKN060 19/17 Q1006 RMK 1ST003 3SC040 5SC060 A2972
RJOW 240000Z 17006KT 140V220 9999 -RA FEW003 SCT045 BKN060 18/18 Q1006
RJOW 232341Z 17007KT 140V200 3500 R11/2000N RA BR FEW005 SCT040 BKN060 19/18 Q1007 RMK 1ST005 3SC040 5SC060 A2974
RJOW 232300Z 17012G24KT 140V210 5000 -RA BR FEW010 SCT050 BKN070 19/17 Q1007
RJOW 231000Z 04008KT 8000 FEW030 SCT060 BKN080 17/16 Q1013
RJOW 230900Z 04008KT 8000 FEW030 SCT035 BKN070 17/16 Q1013
RJOW 230800Z 05006KT 8000 FEW035 BKN070 18/16 Q1013
RJOW 230700Z 04003KT 350V080 8000 FEW020 BKN070 BKN140 17/16 Q1013
RJOW 230600Z 01003KT 320V060 7000 FEW020 BKN070 17/16 Q1014
RJOW 230500Z 02005KT 330V060 5000 BR FEW015 SCT060 BKN080 17/16 Q1015
RJOW 230400Z 02004KT 340V090 7000 FEW020 SCT060 BKN070 17/15 Q1016
RJOW 230300Z 01006KT 7000 FEW020 SCT060 BKN080 17/15 Q1016
RJOW 230200Z 01006KT 330V040 5000 -RA BR FEW001 SCT060 BKN080 17/16 Q1017
RJOW 230137Z 01007KT 330V050 5000 -RA BR FEW000 SCT060 BKN080 17/15 Q1017 RMK 1ST000 3SC060 7AC080 A3005
RJOW 230111Z 36005KT 4000 BR FEW002 SCT006 BKN070 17/16 Q1017 RMK 1ST002 4ST006 7AC070 A3005
RJOW 230100Z 01005KT 330V060 4000 BR FEW001 BKN005 BKN070 16/16 Q1017
RJOW 230000Z 01006KT 4000 BR FEW001 BKN005 BKN070 16/15 Q1017
RJOW 222321Z 01003KT 330V060 5000 BR FEW003 SCT080 BKN/// 16/15 Q1018 RMK 1ST003 3AC080 A3006
RJOW 222300Z VRB02KT 3500 BR FEW001 BKN004 BKN080 15/15 Q1018
RJOW 221000Z 01003KT 320V050 4000 BR FEW002 BKN020 17/16 Q1018
RJOW 220900Z 01004KT 330V070 9000 BR FEW002 BKN015 17/16 Q1018
RJOW 220839Z VRB03KT 9999 BR FEW002 BKN009 18/17 Q1018 RMK 1ST002 5ST009 A3006 3000S-W
RJOW 220800Z 32005KT 270V020 9999 FEW030 BKN/// 20/16 Q1018
RJOW 220700Z 36004KT 320V030 9999 FEW030 BKN/// 21/16 Q1017
RJOW 220600Z 32004KT 280V010 9999 FEW030 BKN/// 21/15 Q1018
RJOW 220500Z 32006KT 290V010 9999 FEW030 BKN/// 22/15 Q1019